Hope A — 9HUZ7 — position and weather

sailwx.info

Track history (hours):
 
Tides and Currents Weather Stations Pressure Air Temp Water Temp Dewpoint Dewpoint Depression Visibility Wind Speed Wind Dir Waves Ship Positions

Hope A

Last reported at 2018-Jan-20 10:32 UTC. Time now 2018-Jan-20 13:20 UTC.
Position N 32°53' E 034°53'.

Length 171 m; draft 10 m.

Type: Ship (hazmat cat B). MMSI: 215705000.

Date/timePositionNaut miles runAvg speedWind from/ knotsBaromVisibWave heightAir tempDewpointWater temp
2018-Jan-20 10:32N 32°53' E 034°53'0 1.7
2018-Jan-20 10:30N 32°53' E 034°53'  
2018-Jan-12 14:59N 44°43' E 037°50'0 0.0
2018-Jan-12 14:29N 44°43' E 037°50'0 0.0
2018-Jan-12 13:59N 44°43' E 037°50'0 0.0
2018-Jan-12 13:29N 44°43' E 037°50'0 0.0
2018-Jan-12 12:59N 44°43' E 037°50'0 0.0
2018-Jan-12 12:29N 44°43' E 037°50'0 0.0
2018-Jan-12 11:59N 44°43' E 037°50'0 0.0
2018-Jan-12 11:29N 44°43' E 037°50'0 0.0
2018-Jan-12 10:59N 44°43' E 037°50'0 0.0
2018-Jan-12 10:29N 44°43' E 037°50'0 0.0
2018-Jan-12 09:59N 44°43' E 037°50'0 0.0
2018-Jan-12 09:29N 44°43' E 037°50'0 0.0
2018-Jan-12 08:59N 44°43' E 037°50'0 0.0
2018-Jan-12 08:29N 44°43' E 037°50'0 0.0
2018-Jan-12 07:59N 44°43' E 037°50'0 0.0
2018-Jan-12 07:29N 44°43' E 037°50'0 0.0
2018-Jan-12 06:59N 44°43' E 037°50'0 0.0
2018-Jan-12 06:29N 44°43' E 037°50'0 0.0
2018-Jan-12 05:59N 44°43' E 037°50'0 0.0
2018-Jan-12 05:29N 44°43' E 037°50'0 0.0
2018-Jan-12 04:59N 44°43' E 037°50'0 0.0
2018-Jan-12 04:28N 44°43' E 037°50'0 0.0
2018-Jan-12 03:58N 44°43' E 037°50'0 0.0
2018-Jan-12 03:28N 44°43' E 037°50'0 0.0
2018-Jan-12 02:58N 44°43' E 037°50'0 0.0
2018-Jan-12 02:28N 44°43' E 037°50'0 0.0
2018-Jan-12 01:58N 44°43' E 037°50'0 0.0
2018-Jan-12 01:28N 44°43' E 037°50'0 0.0
2018-Jan-12 00:58N 44°43' E 037°50'0 0.0
2018-Jan-12 00:28N 44°43' E 037°50'0 0.0
2018-Jan-11 23:58N 44°43' E 037°50'0 0.0
2018-Jan-11 23:28N 44°43' E 037°50'0 0.0
2018-Jan-11 22:58N 44°43' E 037°50'0 0.0
2018-Jan-11 22:28N 44°43' E 037°50'0 0.0
2018-Jan-11 21:58N 44°43' E 037°50'0 0.0
2018-Jan-11 21:28N 44°43' E 037°50'0 0.0
2018-Jan-11 20:58N 44°43' E 037°50'0 0.0
2018-Jan-11 20:28N 44°43' E 037°50'0 0.0
2018-Jan-11 19:58N 44°43' E 037°50'0 0.0
2018-Jan-11 19:28N 44°43' E 037°50'0 0.0
2018-Jan-11 18:58N 44°43' E 037°50'0 0.0
2018-Jan-11 18:28N 44°43' E 037°50'0 0.0
2018-Jan-11 17:58N 44°43' E 037°50'0 0.0
2018-Jan-11 17:28N 44°43' E 037°50'0 0.0
2018-Jan-11 16:58N 44°43' E 037°50'0 0.0
2018-Jan-11 16:28N 44°43' E 037°50'0 0.0
2018-Jan-11 15:58N 44°43' E 037°50'0 0.0
2018-Jan-11 15:25N 44°43' E 037°50'0 0.0
2018-Jan-11 14:58N 44°43' E 037°50'0 0.0
2018-Jan-11 14:28N 44°43' E 037°50'0 0.0
2018-Jan-11 13:58N 44°43' E 037°50'0 0.0
2018-Jan-11 13:28N 44°43' E 037°50'0 0.0
2018-Jan-11 12:58N 44°43' E 037°50'0 0.0
2018-Jan-11 12:28N 44°43' E 037°50'0 0.0
2018-Jan-11 11:58N 44°43' E 037°50'0 0.0
2018-Jan-11 11:28N 44°43' E 037°50'0 0.0
2018-Jan-11 10:58N 44°43' E 037°50'0 0.0
2018-Jan-11 10:28N 44°43' E 037°50'0 0.0
2018-Jan-11 09:58N 44°43' E 037°50'0 0.0
2018-Jan-11 09:28N 44°43' E 037°50'0 0.0
2018-Jan-11 09:01N 44°43' E 037°50'1 1.3
2018-Jan-11 08:31N 44°42' E 037°50'3 6.9
2018-Jan-11 08:00N 44°39' E 037°51'3 4.9
2018-Jan-11 07:30N 44°36' E 037°51'2 3.3
2018-Jan-11 07:00N 44°35' E 037°50'1 2.0
2018-Jan-11 06:31N 44°34' E 037°49'0 0.4
2018-Jan-11 06:01N 44°34' E 037°49'0 0.6
2018-Jan-11 05:30N 44°34' E 037°49'1 2.5
2018-Jan-11 05:00N 44°32' E 037°49'510.6
2018-Jan-11 04:30N 44°30' E 037°42'612.4
2018-Jan-11 04:01N 44°28' E 037°34'612.4
2018-Jan-11 03:30N 44°26' E 037°26'4 8.0
2018-Jan-11 03:00N 44°24' E 037°21'0 0.5
2018-Jan-11 02:15N 44°24' E 037°21'0 0.8
2018-Jan-11 01:58N 44°24' E 037°22'0 0.8
2018-Jan-11 01:30N 44°24' E 037°22'0 0.8
2018-Jan-11 00:54N 44°24' E 037°23'0 0.8
2018-Jan-11 00:24N 44°24' E 037°23'0 0.8
2018-Jan-10 23:54N 44°24' E 037°24'0 0.7
2018-Jan-10 23:30N 44°24' E 037°24'0 0.7
2018-Jan-10 22:59N 44°24' E 037°25'0 0.7
2018-Jan-10 22:24N 44°24' E 037°25'0 0.7
2018-Jan-10 22:00N 44°25' E 037°26'0 0.8
2018-Jan-10 21:29N 44°25' E 037°26'0 0.8
2018-Jan-10 20:53N 44°25' E 037°27'0 0.7
2018-Jan-10 20:29N 44°25' E 037°27'0 0.8
2018-Jan-10 20:00N 44°25' E 037°28'0 0.7
2018-Jan-10 19:31N 44°25' E 037°28'0 0.6
2018-Jan-10 19:00N 44°25' E 037°29'0 0.6
2018-Jan-10 18:30N 44°25' E 037°29'0 0.6
2018-Jan-10 18:01N 44°25' E 037°30'0 0.6
2018-Jan-10 17:28N 44°25' E 037°30'0 0.5
2018-Jan-10 17:00N 44°25' E 037°30'0 0.4
2018-Jan-10 16:31N 44°25' E 037°31'0 0.3
2018-Jan-10 16:00N 44°25' E 037°31'0 0.3
2018-Jan-10 15:30N 44°25' E 037°31'0 0.4
2018-Jan-10 14:59N 44°25' E 037°31'0 0.4
2018-Jan-10 14:30N 44°25' E 037°31'0 0.5
2018-Jan-10 14:00N 44°26' E 037°30'  
Track history (hours):
 
Tides and Currents Weather Stations Pressure Air Temp Water Temp Dewpoint Dewpoint Depression Visibility Wind Speed Wind Dir Waves Ship Positions

Hope A

Last reported at 2018-Jan-20 10:32 UTC. Time now 2018-Jan-20 13:20 UTC.
Position N 32°53' E 034°53'.

Length 171 m; draft 10 m.

Type: Ship (hazmat cat B). MMSI: 215705000.

Date/timePositionNaut miles runAvg speedWind from/ knotsBaromVisibWave heightAir tempDewpointWater temp
2018-Jan-20 10:32N 32°53' E 034°53'0 1.7
2018-Jan-20 10:30N 32°53' E 034°53'  
2018-Jan-12 14:59N 44°43' E 037°50'0 0.0
2018-Jan-12 14:29N 44°43' E 037°50'0 0.0
2018-Jan-12 13:59N 44°43' E 037°50'0 0.0
2018-Jan-12 13:29N 44°43' E 037°50'0 0.0
2018-Jan-12 12:59N 44°43' E 037°50'0 0.0
2018-Jan-12 12:29N 44°43' E 037°50'0 0.0
2018-Jan-12 11:59N 44°43' E 037°50'0 0.0
2018-Jan-12 11:29N 44°43' E 037°50'0 0.0
2018-Jan-12 10:59N 44°43' E 037°50'0 0.0
2018-Jan-12 10:29N 44°43' E 037°50'0 0.0
2018-Jan-12 09:59N 44°43' E 037°50'0 0.0
2018-Jan-12 09:29N 44°43' E 037°50'0 0.0
2018-Jan-12 08:59N 44°43' E 037°50'0 0.0
2018-Jan-12 08:29N 44°43' E 037°50'0 0.0
2018-Jan-12 07:59N 44°43' E 037°50'0 0.0
2018-Jan-12 07:29N 44°43' E 037°50'0 0.0
2018-Jan-12 06:59N 44°43' E 037°50'0 0.0
2018-Jan-12 06:29N 44°43' E 037°50'0 0.0
2018-Jan-12 05:59N 44°43' E 037°50'0 0.0
2018-Jan-12 05:29N 44°43' E 037°50'0 0.0
2018-Jan-12 04:59N 44°43' E 037°50'0 0.0
2018-Jan-12 04:28N 44°43' E 037°50'0 0.0
2018-Jan-12 03:58N 44°43' E 037°50'0 0.0
2018-Jan-12 03:28N 44°43' E 037°50'0 0.0
2018-Jan-12 02:58N 44°43' E 037°50'0 0.0
2018-Jan-12 02:28N 44°43' E 037°50'0 0.0
2018-Jan-12 01:58N 44°43' E 037°50'0 0.0
2018-Jan-12 01:28N 44°43' E 037°50'0 0.0
2018-Jan-12 00:58N 44°43' E 037°50'0 0.0
2018-Jan-12 00:28N 44°43' E 037°50'0 0.0
2018-Jan-11 23:58N 44°43' E 037°50'0 0.0
2018-Jan-11 23:28N 44°43' E 037°50'0 0.0
2018-Jan-11 22:58N 44°43' E 037°50'0 0.0
2018-Jan-11 22:28N 44°43' E 037°50'0 0.0
2018-Jan-11 21:58N 44°43' E 037°50'0 0.0
2018-Jan-11 21:28N 44°43' E 037°50'0 0.0
2018-Jan-11 20:58N 44°43' E 037°50'0 0.0
2018-Jan-11 20:28N 44°43' E 037°50'0 0.0
2018-Jan-11 19:58N 44°43' E 037°50'0 0.0
2018-Jan-11 19:28N 44°43' E 037°50'0 0.0
2018-Jan-11 18:58N 44°43' E 037°50'0 0.0
2018-Jan-11 18:28N 44°43' E 037°50'0 0.0
2018-Jan-11 17:58N 44°43' E 037°50'0 0.0
2018-Jan-11 17:28N 44°43' E 037°50'0 0.0
2018-Jan-11 16:58N 44°43' E 037°50'0 0.0
2018-Jan-11 16:28N 44°43' E 037°50'0 0.0
2018-Jan-11 15:58N 44°43' E 037°50'0 0.0
2018-Jan-11 15:25N 44°43' E 037°50'0 0.0
2018-Jan-11 14:58N 44°43' E 037°50'0 0.0
2018-Jan-11 14:28N 44°43' E 037°50'0 0.0
2018-Jan-11 13:58N 44°43' E 037°50'0 0.0
2018-Jan-11 13:28N 44°43' E 037°50'0 0.0
2018-Jan-11 12:58N 44°43' E 037°50'0 0.0
2018-Jan-11 12:28N 44°43' E 037°50'0 0.0
2018-Jan-11 11:58N 44°43' E 037°50'0 0.0
2018-Jan-11 11:28N 44°43' E 037°50'0 0.0
2018-Jan-11 10:58N 44°43' E 037°50'0 0.0
2018-Jan-11 10:28N 44°43' E 037°50'0 0.0
2018-Jan-11 09:58N 44°43' E 037°50'0 0.0
2018-Jan-11 09:28N 44°43' E 037°50'0 0.0
2018-Jan-11 09:01N 44°43' E 037°50'1 1.3
2018-Jan-11 08:31N 44°42' E 037°50'3 6.9
2018-Jan-11 08:00N 44°39' E 037°51'3 4.9
2018-Jan-11 07:30N 44°36' E 037°51'2 3.3
2018-Jan-11 07:00N 44°35' E 037°50'1 2.0
2018-Jan-11 06:31N 44°34' E 037°49'0 0.4
2018-Jan-11 06:01N 44°34' E 037°49'0 0.6
2018-Jan-11 05:30N 44°34' E 037°49'1 2.5
2018-Jan-11 05:00N 44°32' E 037°49'510.6
2018-Jan-11 04:30N 44°30' E 037°42'612.4
2018-Jan-11 04:01N 44°28' E 037°34'612.4
2018-Jan-11 03:30N 44°26' E 037°26'4 8.0
2018-Jan-11 03:00N 44°24' E 037°21'0 0.5
2018-Jan-11 02:15N 44°24' E 037°21'0 0.8
2018-Jan-11 01:58N 44°24' E 037°22'0 0.8
2018-Jan-11 01:30N 44°24' E 037°22'0 0.8
2018-Jan-11 00:54N 44°24' E 037°23'0 0.8
2018-Jan-11 00:24N 44°24' E 037°23'0 0.8
2018-Jan-10 23:54N 44°24' E 037°24'0 0.7
2018-Jan-10 23:30N 44°24' E 037°24'0 0.7
2018-Jan-10 22:59N 44°24' E 037°25'0 0.7
2018-Jan-10 22:24N 44°24' E 037°25'0 0.7
2018-Jan-10 22:00N 44°25' E 037°26'0 0.8
2018-Jan-10 21:29N 44°25' E 037°26'0 0.8
2018-Jan-10 20:53N 44°25' E 037°27'0 0.7
2018-Jan-10 20:29N 44°25' E 037°27'0 0.8
2018-Jan-10 20:00N 44°25' E 037°28'0 0.7
2018-Jan-10 19:31N 44°25' E 037°28'0 0.6
2018-Jan-10 19:00N 44°25' E 037°29'0 0.6
2018-Jan-10 18:30N 44°25' E 037°29'0 0.6
2018-Jan-10 18:01N 44°25' E 037°30'0 0.6
2018-Jan-10 17:28N 44°25' E 037°30'0 0.5
2018-Jan-10 17:00N 44°25' E 037°30'0 0.4
2018-Jan-10 16:31N 44°25' E 037°31'0 0.3
2018-Jan-10 16:00N 44°25' E 037°31'0 0.3
2018-Jan-10 15:30N 44°25' E 037°31'0 0.4
2018-Jan-10 14:59N 44°25' E 037°31'0 0.4
2018-Jan-10 14:30N 44°25' E 037°31'0 0.5
2018-Jan-10 14:00N 44°26' E 037°30'  

Dump ship's entire track history